sensor_id;sensor_type;location;lat;lon;timestamp;pressure;altitude;pressure_sealevel;temperature;humidity
62680;BME280;68213;40.528;44.712;2023-10-08T00:00:25;80938.88;;;5.64;63.78
62680;BME280;68213;40.528;44.712;2023-10-08T00:01:51;80942.53;;;5.61;63.87
62680;BME280;68213;40.528;44.712;2023-10-08T00:02:51;80880.31;;;5.12;64.00
62680;BME280;68213;40.528;44.712;2023-10-08T00:03:52;80936.78;;;5.62;64.00
62680;BME280;68213;40.528;44.712;2023-10-08T00:04:58;80936.66;;;5.60;63.83
62680;BME280;68213;40.528;44.712;2023-10-08T00:06:04;80938.25;;;5.55;64.30
62680;BME280;68213;40.528;44.712;2023-10-08T00:07:12;80931.13;;;5.56;64.10
62680;BME280;68213;40.528;44.712;2023-10-08T00:08:13;80938.94;;;5.56;64.22
62680;BME280;68213;40.528;44.712;2023-10-08T00:09:16;80937.56;;;5.55;64.32
62680;BME280;68213;40.528;44.712;2023-10-08T00:10:21;80937.72;;;5.57;63.96
62680;BME280;68213;40.528;44.712;2023-10-08T00:11:26;80938.81;;;5.54;64.34
62680;BME280;68213;40.528;44.712;2023-10-08T00:12:29;80937.56;;;5.55;64.24
62680;BME280;68213;40.528;44.712;2023-10-08T00:13:30;80944.69;;;5.54;64.18
62680;BME280;68213;40.528;44.712;2023-10-08T00:14:31;80934.19;;;5.45;64.33
62680;BME280;68213;40.528;44.712;2023-10-08T00:15:44;80940.03;;;5.53;64.44
62680;BME280;68213;40.528;44.712;2023-10-08T00:16:55;80946.63;;;5.54;64.34
62680;BME280;68213;40.528;44.712;2023-10-08T00:17:55;80937.09;;;5.49;64.29
62680;BME280;68213;40.528;44.712;2023-10-08T00:18:59;80936.03;;;5.52;64.74
62680;BME280;68213;40.528;44.712;2023-10-08T00:20:10;80935.72;;;5.48;64.46
62680;BME280;68213;40.528;44.712;2023-10-08T00:21:10;80937.09;;;5.49;64.69
62680;BME280;68213;40.528;44.712;2023-10-08T00:22:11;80920.56;;;5.36;64.41
62680;BME280;68213;40.528;44.712;2023-10-08T00:23:13;80928.91;;;5.52;64.01
62680;BME280;68213;40.528;44.712;2023-10-08T00:24:17;80925.75;;;5.54;64.43
62680;BME280;68213;40.528;44.712;2023-10-08T00:25:18;80927.84;;;5.55;64.52
62680;BME280;68213;40.528;44.712;2023-10-08T00:26:20;80926.59;;;5.56;64.34
62680;BME280;68213;40.528;44.712;2023-10-08T00:27:40;80927.84;;;5.55;64.45
62680;BME280;68213;40.528;44.712;2023-10-08T00:28:41;80934.94;;;5.55;64.22
62680;BME280;68213;40.528;44.712;2023-10-08T00:29:43;80934.09;;;5.52;64.48
62680;BME280;68213;40.528;44.712;2023-10-08T00:30:44;80933.59;;;5.54;64.65
62680;BME280;68213;40.528;44.712;2023-10-08T00:31:45;80924.16;;;5.41;64.59
62680;BME280;68213;40.528;44.712;2023-10-08T00:32:46;80929.59;;;5.53;64.56
62680;BME280;68213;40.528;44.712;2023-10-08T00:33:46;80927.00;;;5.53;64.54
62680;BME280;68213;40.528;44.712;2023-10-08T00:34:48;80933.59;;;5.54;64.53
62680;BME280;68213;40.528;44.712;2023-10-08T00:35:49;80923.00;;;5.52;64.64
62680;BME280;68213;40.528;44.712;2023-10-08T00:36:50;80925.75;;;5.54;64.53
62680;BME280;68213;40.528;44.712;2023-10-08T00:37:51;80934.09;;;5.52;64.83
62680;BME280;68213;40.528;44.712;2023-10-08T00:38:52;80901.69;;;5.28;64.69
62680;BME280;68213;40.528;44.712;2023-10-08T00:39:59;80930.88;;;5.44;65.37
62680;BME280;68213;40.528;44.712;2023-10-08T00:41:00;80932.81;;;5.44;65.27
62680;BME280;68213;40.528;44.712;2023-10-08T00:42:00;80932.81;;;5.44;65.13
62680;BME280;68213;40.528;44.712;2023-10-08T00:43:05;80931.59;;;5.45;64.95
62680;BME280;68213;40.528;44.712;2023-10-08T00:44:11;80933.50;;;5.44;65.04
62680;BME280;68213;40.528;44.712;2023-10-08T00:45:17;80930.88;;;5.44;64.92
62680;BME280;68213;40.528;44.712;2023-10-08T00:46:19;80937.34;;;5.43;65.02
62680;BME280;68213;40.528;44.712;2023-10-08T00:47:20;80937.03;;;5.39;65.28
62680;BME280;68213;40.528;44.712;2023-10-08T00:48:26;80935.25;;;5.42;65.32
62680;BME280;68213;40.528;44.712;2023-10-08T00:49:36;80933.88;;;5.40;65.22
62680;BME280;68213;40.528;44.712;2023-10-08T00:50:43;80928.00;;;5.40;65.25
62680;BME280;68213;40.528;44.712;2023-10-08T00:51:45;80925.31;;;5.30;65.54
62680;BME280;68213;40.528;44.712;2023-10-08T00:52:59;80928.38;;;5.36;65.66
62680;BME280;68213;40.528;44.712;2023-10-08T00:54:03;80928.38;;;5.36;65.72
62680;BME280;68213;40.528;44.712;2023-10-08T00:55:08;80932.19;;;5.35;65.69
62680;BME280;68213;40.528;44.712;2023-10-08T00:56:22;80935.34;;;5.34;65.71
62680;BME280;68213;40.528;44.712;2023-10-08T00:57:27;80937.41;;;5.35;65.61
62680;BME280;68213;40.528;44.712;2023-10-08T00:58:29;80928.91;;;5.35;65.60
62680;BME280;68213;40.528;44.712;2023-10-08T00:59:33;80934.81;;;5.35;65.75
62680;BME280;68213;40.528;44.712;2023-10-08T01:00:50;80928.75;;;5.33;65.81
62680;BME280;68213;40.528;44.712;2023-10-08T01:01:53;80932.03;;;5.33;65.68
62680;BME280;68213;40.528;44.712;2023-10-08T01:03:05;80920.38;;;5.34;65.88
62680;BME280;68213;40.528;44.712;2023-10-08T01:04:19;80935.66;;;5.38;65.41
62680;BME280;68213;40.528;44.712;2023-10-08T01:05:26;80927.81;;;5.38;65.38
62680;BME280;68213;40.528;44.712;2023-10-08T01:06:43;80920.31;;;5.42;65.10
62680;BME280;68213;40.528;44.712;2023-10-08T01:07:45;80923.94;;;5.47;64.95
62680;BME280;68213;40.528;44.712;2023-10-08T01:08:49;80917.78;;;5.52;64.54
62680;BME280;68213;40.528;44.712;2023-10-08T01:09:56;80914.09;;;5.55;64.49
62680;BME280;68213;40.528;44.712;2023-10-08T01:11:23;80920.06;;;5.65;64.14
62680;BME280;68213;40.528;44.712;2023-10-08T01:12:47;80913.53;;;5.74;63.42
62680;BME280;68213;40.528;44.712;2023-10-08T01:14:11;80913.28;;;5.80;63.31
62680;BME280;68213;40.528;44.712;2023-10-08T01:15:12;80914.84;;;5.83;63.25
62680;BME280;68213;40.528;44.712;2023-10-08T01:16:25;80899.81;;;5.74;63.08
62680;BME280;68213;40.528;44.712;2023-10-08T01:17:29;80908.53;;;5.86;63.16
62680;BME280;68213;40.528;44.712;2023-10-08T01:18:32;80907.28;;;5.87;63.10
62680;BME280;68213;40.528;44.712;2023-10-08T01:19:35;80915.28;;;5.89;63.05
62680;BME280;68213;40.528;44.712;2023-10-08T01:20:41;80912.81;;;5.91;62.68
62680;BME280;68213;40.528;44.712;2023-10-08T01:21:48;80910.34;;;5.93;62.71
62680;BME280;68213;40.528;44.712;2023-10-08T01:22:51;80904.69;;;5.87;63.26
62680;BME280;68213;40.528;44.712;2023-10-08T01:23:51;80906.47;;;5.84;63.36
62680;BME280;68213;40.528;44.712;2023-10-08T01:24:54;80903.19;;;5.84;63.28
62680;BME280;68213;40.528;44.712;2023-10-08T01:25:55;80905.63;;;5.82;63.60
62680;BME280;68213;40.528;44.712;2023-10-08T01:27:10;80902.69;;;5.78;63.97
62680;BME280;68213;40.528;44.712;2023-10-08T01:28:12;80901.19;;;5.75;63.99
62680;BME280;68213;40.528;44.712;2023-10-08T01:29:18;80904.88;;;5.71;64.07
62680;BME280;68213;40.528;44.712;2023-10-08T01:30:21;80901.81;;;5.65;64.41
62680;BME280;68213;40.528;44.712;2023-10-08T01:31:22;80898.75;;;5.59;64.81
62680;BME280;68213;40.528;44.712;2023-10-08T01:32:23;80896.00;;;5.57;64.97
62680;BME280;68213;40.528;44.712;2023-10-08T01:33:24;80897.75;;;5.54;64.99
62680;BME280;68213;40.528;44.712;2023-10-08T01:34:31;80899.97;;;5.40;65.60
62680;BME280;68213;40.528;44.712;2023-10-08T01:35:36;80902.59;;;5.05;66.98
62680;BME280;68213;40.528;44.712;2023-10-08T01:36:37;80885.03;;;4.88;67.93
62680;BME280;68213;40.528;44.712;2023-10-08T01:37:37;80904.97;;;4.93;68.03
62680;BME280;68213;40.528;44.712;2023-10-08T01:38:43;80902.13;;;4.82;68.40
62680;BME280;68213;40.528;44.712;2023-10-08T01:39:44;80897.81;;;4.76;68.73
62680;BME280;68213;40.528;44.712;2023-10-08T01:40:45;80893.97;;;4.60;70.01
62680;BME280;68213;40.528;44.712;2023-10-08T01:41:51;80903.69;;;4.59;69.51
62680;BME280;68213;40.528;44.712;2023-10-08T01:42:52;80885.91;;;4.23;70.64
62680;BME280;68213;40.528;44.712;2023-10-08T01:43:53;80886.50;;;4.13;71.19
62680;BME280;68213;40.528;44.712;2023-10-08T01:44:54;80900.47;;;4.26;71.31
62680;BME280;68213;40.528;44.712;2023-10-08T01:45:58;80898.34;;;4.32;71.03
62680;BME280;68213;40.528;44.712;2023-10-08T01:46:59;80902.81;;;4.39;70.42
62680;BME280;68213;40.528;44.712;2023-10-08T01:48:02;80902.06;;;4.47;70.09
62680;BME280;68213;40.528;44.712;2023-10-08T01:49:03;80903.06;;;4.51;69.87
62680;BME280;68213;40.528;44.712;2023-10-08T01:50:16;80900.25;;;4.57;69.75
62680;BME280;68213;40.528;44.712;2023-10-08T01:51:24;80900.72;;;4.63;69.70
62680;BME280;68213;40.528;44.712;2023-10-08T01:52:28;80899.63;;;4.66;69.41
62680;BME280;68213;40.528;44.712;2023-10-08T01:53:30;80901.03;;;4.67;69.22
62680;BME280;68213;40.528;44.712;2023-10-08T01:54:31;80902.41;;;4.68;69.53
62680;BME280;68213;40.528;44.712;2023-10-08T01:55:36;80897.19;;;4.68;69.28
62680;BME280;68213;40.528;44.712;2023-10-08T01:56:45;80889.97;;;4.59;69.29
62680;BME280;68213;40.528;44.712;2023-10-08T01:57:46;80905.00;;;4.68;69.30
62680;BME280;68213;40.528;44.712;2023-10-08T01:58:47;80906.94;;;4.68;69.24
62680;BME280;68213;40.528;44.712;2023-10-08T01:59:48;80902.69;;;4.55;69.62
62680;BME280;68213;40.528;44.712;2023-10-08T02:00:49;80904.38;;;4.60;69.17
62680;BME280;68213;40.528;44.712;2023-10-08T02:01:52;80895.50;;;4.63;69.31
62680;BME280;68213;40.528;44.712;2023-10-08T02:02:57;80901.56;;;4.66;69.34
62680;BME280;68213;40.528;44.712;2023-10-08T02:03:59;80899.50;;;4.64;69.35
62680;BME280;68213;40.528;44.712;2023-10-08T02:05:01;80897.94;;;4.61;69.49
62680;BME280;68213;40.528;44.712;2023-10-08T02:06:03;80900.25;;;4.57;69.71
62680;BME280;68213;40.528;44.712;2023-10-08T02:07:06;80889.84;;;4.57;69.62
62680;BME280;68213;40.528;44.712;2023-10-08T02:08:14;80897.31;;;4.53;69.40
62680;BME280;68213;40.528;44.712;2023-10-08T02:09:15;80882.66;;;4.40;70.04
62680;BME280;68213;40.528;44.712;2023-10-08T02:10:16;80891.34;;;4.42;70.41
62680;BME280;68213;40.528;44.712;2023-10-08T02:11:16;80893.06;;;4.40;70.31
62680;BME280;68213;40.528;44.712;2023-10-08T02:12:17;80892.94;;;4.38;70.43
62680;BME280;68213;40.528;44.712;2023-10-08T02:13:18;80895.19;;;4.34;70.55
62680;BME280;68213;40.528;44.712;2023-10-08T02:14:22;80899.03;;;4.33;70.33
62680;BME280;68213;40.528;44.712;2023-10-08T02:15:23;80895.38;;;4.36;70.08
62680;BME280;68213;40.528;44.712;2023-10-08T02:16:26;80897.28;;;4.35;70.12
62680;BME280;68213;40.528;44.712;2023-10-08T02:17:28;80892.59;;;4.34;69.78
62680;BME280;68213;40.528;44.712;2023-10-08T02:18:29;80899.03;;;4.33;70.49
62680;BME280;68213;40.528;44.712;2023-10-08T02:19:34;80897.34;;;4.27;70.59
62680;BME280;68213;40.528;44.712;2023-10-08T02:20:39;80873.34;;;4.11;70.49
62680;BME280;68213;40.528;44.712;2023-10-08T02:21:40;80892.97;;;4.30;70.74
62680;BME280;68213;40.528;44.712;2023-10-08T02:22:43;80893.16;;;4.32;70.80
62680;BME280;68213;40.528;44.712;2023-10-08T02:23:46;80890.00;;;4.34;70.74
62680;BME280;68213;40.528;44.712;2023-10-08T02:24:46;80889.63;;;4.37;70.59
62680;BME280;68213;40.528;44.712;2023-10-08T02:25:48;80892.41;;;4.39;70.35
62680;BME280;68213;40.528;44.712;2023-10-08T02:26:53;80891.34;;;4.42;70.36
62680;BME280;68213;40.528;44.712;2023-10-08T02:27:55;80894.47;;;4.41;70.23
62680;BME280;68213;40.528;44.712;2023-10-08T02:28:55;80895.16;;;4.41;70.53
62680;BME280;68213;40.528;44.712;2023-10-08T02:29:59;80885.81;;;4.38;70.42
62680;BME280;68213;40.528;44.712;2023-10-08T02:31:19;80886.28;;;4.44;70.27
62680;BME280;68213;40.528;44.712;2023-10-08T02:32:21;80886.28;;;4.44;70.32
62680;BME280;68213;40.528;44.712;2023-10-08T02:33:26;80886.44;;;4.47;70.24
62680;BME280;68213;40.528;44.712;2023-10-08T02:34:27;80887.13;;;4.47;70.24
62680;BME280;68213;40.528;44.712;2023-10-08T02:35:27;80889.72;;;4.47;70.28
62680;BME280;68213;40.528;44.712;2023-10-08T02:36:28;80890.44;;;4.48;70.27
62680;BME280;68213;40.528;44.712;2023-10-08T02:37:29;80898.91;;;4.48;70.42
62680;BME280;68213;40.528;44.712;2023-10-08T02:38:30;80887.13;;;4.47;70.35
62680;BME280;68213;40.528;44.712;2023-10-08T02:39:38;80890.97;;;4.46;70.39
62680;BME280;68213;40.528;44.712;2023-10-08T02:40:42;80891.66;;;4.47;70.31
62680;BME280;68213;40.528;44.712;2023-10-08T02:41:49;80870.94;;;4.31;70.33
62680;BME280;68213;40.528;44.712;2023-10-08T02:42:50;80887.28;;;4.49;70.08
62680;BME280;68213;40.528;44.712;2023-10-08T02:43:50;80889.22;;;4.49;70.29
62680;BME280;68213;40.528;44.712;2023-10-08T02:44:51;80891.66;;;4.47;70.59
62680;BME280;68213;40.528;44.712;2023-10-08T02:45:53;80889.03;;;4.47;70.42
62680;BME280;68213;40.528;44.712;2023-10-08T02:46:56;80885.38;;;4.50;70.14
62680;BME280;68213;40.528;44.712;2023-10-08T02:47:56;80898.53;;;4.52;70.05
62680;BME280;68213;40.528;44.712;2023-10-08T02:48:57;80886.44;;;4.47;70.42
62680;BME280;68213;40.528;44.712;2023-10-08T02:49:58;80892.88;;;4.45;70.49
62680;BME280;68213;40.528;44.712;2023-10-08T02:50:59;80890.44;;;4.48;70.41
62680;BME280;68213;40.528;44.712;2023-10-08T02:52:14;80887.66;;;4.45;70.56
62680;BME280;68213;40.528;44.712;2023-10-08T02:53:16;80885.63;;;4.36;70.69
62680;BME280;68213;40.528;44.712;2023-10-08T02:54:22;80887.50;;;4.43;70.68
62680;BME280;68213;40.528;44.712;2023-10-08T02:55:31;80892.03;;;4.43;70.63
62680;BME280;68213;40.528;44.712;2023-10-08T02:56:35;80890.63;;;4.42;70.67
62680;BME280;68213;40.528;44.712;2023-10-08T02:57:35;80889.97;;;4.41;70.51
62680;BME280;68213;40.528;44.712;2023-10-08T02:58:36;80895.16;;;4.41;70.81
62680;BME280;68213;40.528;44.712;2023-10-08T02:59:36;80892.56;;;4.41;70.77
62680;BME280;68213;40.528;44.712;2023-10-08T03:00:42;80888.03;;;4.42;70.75
62680;BME280;68213;40.528;44.712;2023-10-08T03:01:43;80887.34;;;4.41;70.61
62680;BME280;68213;40.528;44.712;2023-10-08T03:02:44;80893.94;;;4.42;70.89
62680;BME280;68213;40.528;44.712;2023-10-08T03:03:46;80883.19;;;4.38;71.23
62680;BME280;68213;40.528;44.712;2023-10-08T03:04:48;80891.19;;;4.40;70.98
62680;BME280;68213;40.528;44.712;2023-10-08T03:05:52;80887.19;;;4.39;70.95
62680;BME280;68213;40.528;44.712;2023-10-08T03:06:53;80886.88;;;4.35;71.05
62680;BME280;68213;40.528;44.712;2023-10-08T03:07:53;80893.97;;;4.35;70.91
62680;BME280;68213;40.528;44.712;2023-10-08T03:08:54;80890.84;;;4.36;70.83
62680;BME280;68213;40.528;44.712;2023-10-08T03:09:54;80887.41;;;4.34;71.04
62680;BME280;68213;40.528;44.712;2023-10-08T03:11:17;80891.75;;;4.31;71.18
62680;BME280;68213;40.528;44.712;2023-10-08T03:12:18;80883.78;;;4.29;71.46
62680;BME280;68213;40.528;44.712;2023-10-08T03:13:18;80885.50;;;4.34;70.48
62680;BME280;68213;40.528;44.712;2023-10-08T03:14:20;80887.13;;;4.47;69.90
62680;BME280;68213;40.528;44.712;2023-10-08T03:15:23;80880.28;;;4.77;67.80
62680;BME280;68213;40.528;44.712;2023-10-08T03:16:31;80884.50;;;5.25;65.93
62680;BME280;68213;40.528;44.712;2023-10-08T03:17:34;80880.84;;;5.28;66.47
62680;BME280;68213;40.528;44.712;2023-10-08T03:18:37;80886.44;;;4.89;69.20
62680;BME280;68213;40.528;44.712;2023-10-08T03:19:43;80881.00;;;5.13;66.85
62680;BME280;68213;40.528;44.712;2023-10-08T03:20:45;80882.50;;;5.33;66.36
62680;BME280;68213;40.528;44.712;2023-10-08T03:21:50;80874.31;;;5.37;65.43
62680;BME280;68213;40.528;44.712;2023-10-08T03:22:57;80883.44;;;5.46;66.30
62680;BME280;68213;40.528;44.712;2023-10-08T03:23:58;80878.50;;;5.67;63.89
62680;BME280;68213;40.528;44.712;2023-10-08T03:24:58;80878.78;;;5.71;64.91
62680;BME280;68213;40.528;44.712;2023-10-08T03:26:14;80886.00;;;5.63;65.33
62680;BME280;68213;40.528;44.712;2023-10-08T03:27:33;80885.47;;;5.65;65.50
62680;BME280;68213;40.528;44.712;2023-10-08T03:28:41;80887.38;;;5.64;65.10
62680;BME280;68213;40.528;44.712;2023-10-08T03:29:42;80885.22;;;5.70;64.90
62680;BME280;68213;40.528;44.712;2023-10-08T03:30:43;80880.91;;;5.83;63.68
62680;BME280;68213;40.528;44.712;2023-10-08T03:31:56;80887.53;;;5.84;64.49
62680;BME280;68213;40.528;44.712;2023-10-08T03:32:58;80884.53;;;5.87;63.88
62680;BME280;68213;40.528;44.712;2023-10-08T03:34:01;80891.34;;;5.83;64.82
62680;BME280;68213;40.528;44.712;2023-10-08T03:35:02;80885.00;;;5.76;65.11
62680;BME280;68213;40.528;44.712;2023-10-08T03:36:07;80888.59;;;5.81;64.86
62680;BME280;68213;40.528;44.712;2023-10-08T03:37:34;80883.66;;;5.85;64.48
62680;BME280;68213;40.528;44.712;2023-10-08T03:38:41;80890.97;;;5.86;64.74
62680;BME280;68213;40.528;44.712;2023-10-08T03:39:49;80888.47;;;5.88;64.52
62680;BME280;68213;40.528;44.712;2023-10-08T03:41:26;80889.03;;;5.87;65.04
62680;BME280;68213;40.528;44.712;2023-10-08T03:42:33;80886.91;;;5.76;65.15
62680;BME280;68213;40.528;44.712;2023-10-08T03:43:41;80892.81;;;5.76;65.61
62680;BME280;68213;40.528;44.712;2023-10-08T03:45:02;80890.75;;;5.75;65.93
62680;BME280;68213;40.528;44.712;2023-10-08T03:46:10;80887.69;;;5.68;66.54
62680;BME280;68213;40.528;44.712;2023-10-08T03:47:15;80887.69;;;5.68;66.38
62680;BME280;68213;40.528;44.712;2023-10-08T03:48:20;80896.22;;;5.69;66.55
62680;BME280;68213;40.528;44.712;2023-10-08T03:49:23;80890.78;;;5.57;67.32
62680;BME280;68213;40.528;44.712;2023-10-08T03:50:23;80894.09;;;5.58;67.70
62680;BME280;68213;40.528;44.712;2023-10-08T03:51:33;80880.19;;;5.55;67.21
62680;BME280;68213;40.528;44.712;2023-10-08T03:52:39;80882.16;;;5.64;65.94
62680;BME280;68213;40.528;44.712;2023-10-08T03:53:43;80893.22;;;5.72;66.35
62680;BME280;68213;40.528;44.712;2023-10-08T03:54:59;80896.03;;;6.02;63.60
62680;BME280;68213;40.528;44.712;2023-10-08T03:56:25;80896.22;;;6.14;64.84
62680;BME280;68213;40.528;44.712;2023-10-08T03:57:30;80890.13;;;6.39;62.27
62680;BME280;68213;40.528;44.712;2023-10-08T03:58:41;80890.28;;;6.41;63.28
62680;BME280;68213;40.528;44.712;2023-10-08T03:59:47;80878.63;;;6.51;61.22
62680;BME280;68213;40.528;44.712;2023-10-08T04:00:49;80882.69;;;6.72;60.31
62680;BME280;68213;40.528;44.712;2023-10-08T04:01:49;80895.28;;;7.03;59.65
62680;BME280;68213;40.528;44.712;2023-10-08T04:02:57;80887.56;;;6.95;61.33
62680;BME280;68213;40.528;44.712;2023-10-08T04:04:01;80895.03;;;7.19;59.53
62680;BME280;68213;40.528;44.712;2023-10-08T04:05:02;80896.69;;;7.34;58.60
62680;BME280;68213;40.528;44.712;2023-10-08T04:06:21;80891.75;;;7.47;58.32
62680;BME280;68213;40.528;44.712;2023-10-08T04:07:40;80886.81;;;7.52;57.62
62680;BME280;68213;40.528;44.712;2023-10-08T04:09:03;80888.72;;;7.71;57.69
62680;BME280;68213;40.528;44.712;2023-10-08T04:10:10;80887.34;;;7.80;57.37
62680;BME280;68213;40.528;44.712;2023-10-08T04:11:11;80874.28;;;7.70;57.09
62680;BME280;68213;40.528;44.712;2023-10-08T04:12:39;80899.44;;;7.94;56.78
62680;BME280;68213;40.528;44.712;2023-10-08T04:13:50;80896.28;;;7.96;57.41
62680;BME280;68213;40.528;44.712;2023-10-08T04:14:54;80895.88;;;8.00;57.56
62680;BME280;68213;40.528;44.712;2023-10-08T04:15:56;80894.78;;;7.93;58.33
62680;BME280;68213;40.528;44.712;2023-10-08T04:16:57;80897.94;;;7.91;57.84
62680;BME280;68213;40.528;44.712;2023-10-08T04:17:59;80902.78;;;7.95;57.57
62680;BME280;68213;40.528;44.712;2023-10-08T04:19:04;80878.25;;;7.81;57.44
62680;BME280;68213;40.528;44.712;2023-10-08T04:20:07;80899.84;;;8.01;56.80
62680;BME280;68213;40.528;44.712;2023-10-08T04:21:28;80900.41;;;8.09;55.77
62680;BME280;68213;40.528;44.712;2023-10-08T04:22:28;80894.47;;;8.18;55.57
62680;BME280;68213;40.528;44.712;2023-10-08T04:23:29;80903.94;;;8.23;55.35
62680;BME280;68213;40.528;44.712;2023-10-08T04:24:33;80913.16;;;8.34;55.02
62680;BME280;68213;40.528;44.712;2023-10-08T04:25:37;80908.06;;;8.36;54.97
62680;BME280;68213;40.528;44.712;2023-10-08T04:26:37;80906.56;;;8.43;55.50
62680;BME280;68213;40.528;44.712;2023-10-08T04:27:41;80908.03;;;8.46;56.47
62680;BME280;68213;40.528;44.712;2023-10-08T04:28:41;80909.44;;;8.47;55.99
62680;BME280;68213;40.528;44.712;2023-10-08T04:29:42;80908.78;;;8.47;56.08
62680;BME280;68213;40.528;44.712;2023-10-08T04:30:43;80907.38;;;8.46;55.39
62680;BME280;68213;40.528;44.712;2023-10-08T04:31:45;80899.78;;;8.50;55.01
62680;BME280;68213;40.528;44.712;2023-10-08T04:32:47;80910.81;;;8.58;55.03
62680;BME280;68213;40.528;44.712;2023-10-08T04:33:47;80914.38;;;8.63;55.26
62680;BME280;68213;40.528;44.712;2023-10-08T04:34:48;80907.31;;;8.65;54.77
62680;BME280;68213;40.528;44.712;2023-10-08T04:35:50;80913.66;;;8.72;54.55
62680;BME280;68213;40.528;44.712;2023-10-08T04:36:57;80907.56;;;8.79;54.63
62680;BME280;68213;40.528;44.712;2023-10-08T04:38:01;80913.75;;;8.84;55.41
62680;BME280;68213;40.528;44.712;2023-10-08T04:39:04;80914.72;;;8.88;55.26
62680;BME280;68213;40.528;44.712;2023-10-08T04:40:13;80915.66;;;8.93;55.18
62680;BME280;68213;40.528;44.712;2023-10-08T04:41:16;80915.09;;;8.95;55.29
62680;BME280;68213;40.528;44.712;2023-10-08T04:42:19;80915.53;;;8.91;54.94
62680;BME280;68213;40.528;44.712;2023-10-08T04:43:26;80909.16;;;8.94;55.53
62680;BME280;68213;40.528;44.712;2023-10-08T04:44:28;80911.78;;;8.94;55.31
62680;BME280;68213;40.528;44.712;2023-10-08T04:45:32;80912.88;;;9.01;54.61
62680;BME280;68213;40.528;44.712;2023-10-08T04:46:34;80918.34;;;9.05;53.98
62680;BME280;68213;40.528;44.712;2023-10-08T04:47:38;80909.53;;;9.10;54.01
62680;BME280;68213;40.528;44.712;2023-10-08T04:48:45;80912.25;;;9.12;53.95
62680;BME280;68213;40.528;44.712;2023-10-08T04:49:46;80909.53;;;9.10;53.72
62680;BME280;68213;40.528;44.712;2023-10-08T04:50:51;80888.88;;;8.95;53.54
62680;BME280;68213;40.528;44.712;2023-10-08T04:52:03;80910.19;;;9.11;53.66
62680;BME280;68213;40.528;44.712;2023-10-08T04:53:18;80917.19;;;9.18;54.12
62680;BME280;68213;40.528;44.712;2023-10-08T04:54:29;80916.66;;;9.19;53.22
62680;BME280;68213;40.528;44.712;2023-10-08T04:55:32;80911.66;;;9.24;53.42
62680;BME280;68213;40.528;44.712;2023-10-08T04:56:33;80911.22;;;9.27;53.28
62680;BME280;68213;40.528;44.712;2023-10-08T04:57:33;80912.75;;;9.30;53.12
62680;BME280;68213;40.528;44.712;2023-10-08T04:58:35;80916.63;;;9.29;53.04
62680;BME280;68213;40.528;44.712;2023-10-08T04:59:44;80903.06;;;9.33;52.71
62680;BME280;68213;40.528;44.712;2023-10-08T05:00:50;80904.16;;;9.30;53.07
62680;BME280;68213;40.528;44.712;2023-10-08T05:01:54;80916.84;;;9.33;53.17
62680;BME280;68213;40.528;44.712;2023-10-08T05:03:20;80915.31;;;9.40;52.97
62680;BME280;68213;40.528;44.712;2023-10-08T05:04:23;80906.31;;;9.43;52.98
62680;BME280;68213;40.528;44.712;2023-10-08T05:05:24;80913.06;;;9.46;52.85
62680;BME280;68213;40.528;44.712;2023-10-08T05:06:33;80918.00;;;9.52;53.05
62680;BME280;68213;40.528;44.712;2023-10-08T05:07:34;80909.44;;;9.51;52.20
62680;BME280;68213;40.528;44.712;2023-10-08T05:08:49;80912.56;;;9.60;52.42
62680;BME280;68213;40.528;44.712;2023-10-08T05:09:59;80914.75;;;9.63;52.82
62680;BME280;68213;40.528;44.712;2023-10-08T05:11:08;80920.38;;;9.69;52.32
62680;BME280;68213;40.528;44.712;2023-10-08T05:12:24;80900.25;;;9.62;51.79
62680;BME280;68213;40.528;44.712;2023-10-08T05:13:51;80917.69;;;9.79;51.54
62680;BME280;68213;40.528;44.712;2023-10-08T05:15:12;80912.69;;;9.83;51.48
62680;BME280;68213;40.528;44.712;2023-10-08T05:16:12;80920.94;;;9.90;52.31
62680;BME280;68213;40.528;44.712;2023-10-08T05:17:29;80906.06;;;9.82;51.92
62680;BME280;68213;40.528;44.712;2023-10-08T05:18:46;80924.59;;;9.84;51.40
62680;BME280;68213;40.528;44.712;2023-10-08T05:20:08;80901.75;;;9.87;51.70
62680;BME280;68213;40.528;44.712;2023-10-08T05:21:09;80915.81;;;9.92;51.26
62680;BME280;68213;40.528;44.712;2023-10-08T05:22:26;80918.44;;;9.92;51.36
62680;BME280;68213;40.528;44.712;2023-10-08T05:23:29;80912.06;;;9.95;51.03
62680;BME280;68213;40.528;44.712;2023-10-08T05:24:29;80910.38;;;9.99;51.76
62680;BME280;68213;40.528;44.712;2023-10-08T05:25:42;80909.56;;;9.97;50.44
62680;BME280;68213;40.528;44.712;2023-10-08T05:26:58;80912.00;;;10.05;50.80
62680;BME280;68213;40.528;44.712;2023-10-08T05:28:21;80903.44;;;10.04;50.14
62680;BME280;68213;40.528;44.712;2023-10-08T05:29:25;80898.97;;;10.07;50.03
62680;BME280;68213;40.528;44.712;2023-10-08T05:30:44;80913.03;;;10.11;50.58
62680;BME280;68213;40.528;44.712;2023-10-08T05:32:14;80907.34;;;10.15;50.80
62680;BME280;68213;40.528;44.712;2023-10-08T05:33:30;80893.09;;;10.18;51.11
62680;BME280;68213;40.528;44.712;2023-10-08T05:35:00;80903.38;;;10.26;51.45
62680;BME280;68213;40.528;44.712;2023-10-08T05:36:19;80902.41;;;10.31;50.74
62680;BME280;68213;40.528;44.712;2023-10-08T05:37:28;80896.44;;;10.30;50.74
62680;BME280;68213;40.528;44.712;2023-10-08T05:38:42;80902.41;;;10.31;50.56
62680;BME280;68213;40.528;44.712;2023-10-08T05:39:49;80889.81;;;10.29;49.71
62680;BME280;68213;40.528;44.712;2023-10-08T05:40:57;80904.19;;;10.28;49.50
62680;BME280;68213;40.528;44.712;2023-10-08T05:41:58;80894.38;;;10.29;50.22
62680;BME280;68213;40.528;44.712;2023-10-08T05:43:17;80895.75;;;10.30;50.50
62680;BME280;68213;40.528;44.712;2023-10-08T05:44:41;80893.50;;;10.36;49.14
62680;BME280;68213;40.528;44.712;2023-10-08T05:45:46;80893.75;;;10.40;50.00
62680;BME280;68213;40.528;44.712;2023-10-08T05:47:06;80892.97;;;10.50;50.61
62680;BME280;68213;40.528;44.712;2023-10-08T05:48:26;80897.81;;;10.65;49.77
62680;BME280;68213;40.528;44.712;2023-10-08T05:49:28;80886.97;;;10.71;49.38